CheckWX is a tool to help pilots better visualize weather data.  It is not intended as a substitute for an official pre-flight weather briefing.

00:25:14 UTC

66R METAR
Robert R Wells Jr Airport
Columbus, Texas, USA
Current

30 mins ago

K66R 202355Z AUTO 16004KT 10SM CLR 27/08 A2999 RMK AO2 T02650081 10277 20236
Observed
Apr-20 @ 23:55 UTC
Wind
  • 160° at 4 KTS
Visibility
10 SM
Flight Rules
VFR
Cloud Levels
  • Clear skies
Temperature
27°C / 81°F
Dewpoint
C / 46°F
Humidity
30%
Altimeter
29.99" Hg
Pressure
1015.62 hPa
Previous

50 mins ago

K66R 202335Z AUTO 15003KT 10SM CLR 27/07 A2999 RMK AO2 T02710072
Observed
Apr-20 @ 23:35 UTC
Wind
  • 150° at 3 KTS
Visibility
10 SM
Flight Rules
VFR
Cloud Levels
  • Clear skies
Temperature
27°C / 81°F
Dewpoint
C / 45°F
Humidity
28%
Altimeter
29.99" Hg
Pressure
1015.62 hPa
Previous

1 hour ago

K66R 202315Z AUTO 17003KT 10SM CLR 27/07 A3000 RMK AO2 T02720072
Observed
Apr-20 @ 23:15 UTC
Wind
  • 170° at 3 KTS
Visibility
10 SM
Flight Rules
VFR
Cloud Levels
  • Clear skies
Temperature
27°C / 81°F
Dewpoint
C / 45°F
Humidity
28%
Altimeter
30" Hg
Pressure
1015.92 hPa